Time;durP1;ratioP1;P1;durP2;ratioP2;P2;SDS_P1;SDS_P2;PMS_P1;PMS_P2;Temp;Humidity;BMP_temperature;BMP_pressure;BME280_temperature;BME280_humidity;BME280_pressure;Samples;Min_cycle;Max_cycle;Signal;HPM_P1;HPM_P2
2022/07/19 00:00:24;;;;;;;3.97;3.30;;;;;;;;;;7380925;19;20117;-68
2022/07/19 00:02:50;;;;;;;6.00;3.53;;;;;;;;;;7379167;19;20212;-67
2022/07/19 00:05:15;;;;;;;4.03;3.13;;;;;;;;;;7383029;19;20159;-68
2022/07/19 00:07:41;;;;;;;5.53;3.65;;;;;;;;;;7385867;19;20129;-67
2022/07/19 00:10:09;;;;;;;3.90;3.38;;;;;;;;;;7380197;19;20117;-69
2022/07/19 00:12:35;;;;;;;3.83;3.53;;;;;;;;;;7380516;19;20157;-67
2022/07/19 00:15:01;;;;;;;5.55;3.60;;;;;;;;;;7379478;19;20143;-68
2022/07/19 00:17:26;;;;;;;4.55;3.53;;;;;;;;;;7390700;19;20591;-67
2022/07/19 00:19:52;;;;;;;5.55;3.92;;;;;;;;;;7389728;19;20133;-67
2022/07/19 00:22:17;;;;;;;3.97;3.30;;;;;;;;;;7381799;19;20141;-68
2022/07/19 00:24:42;;;;;;;3.83;3.40;;;;;;;;;;7382189;19;20117;-67
2022/07/19 00:27:08;;;;;;;4.82;3.60;;;;;;;;;;7379118;19;20394;-67
2022/07/19 00:29:33;;;;;;;5.22;3.65;;;;;;;;;;7381629;19;20128;-68
2022/07/19 00:31:58;;;;;;;4.13;3.72;;;;;;;;;;7386504;19;20148;-67
2022/07/19 00:34:24;;;;;;;4.40;3.58;;;;;;;;;;7390013;19;20117;-68
2022/07/19 00:36:49;;;;;;;5.07;3.70;;;;;;;;;;7390111;19;20132;-68
2022/07/19 00:39:14;;;;;;;4.32;3.60;;;;;;;;;;7390727;19;20128;-67
2022/07/19 00:41:43;;;;;;;5.78;4.00;;;;;;;;;;7380430;19;20145;-68
2022/07/19 00:44:10;;;;;;;4.38;3.70;;;;;;;;;;7382178;19;20128;-69
2022/07/19 00:46:36;;;;;;;5.18;4.07;;;;;;;;;;7372505;19;20667;-68
2022/07/19 00:49:03;;;;;;;4.05;3.30;;;;;;;;;;7376052;19;20151;-68
2022/07/19 00:51:28;;;;;;;5.90;3.75;;;;;;;;;;7377174;19;20192;-69
2022/07/19 00:53:54;;;;;;;3.70;3.40;;;;;;;;;;7380197;19;20117;-68
2022/07/19 00:56:21;;;;;;;5.85;4.53;;;;;;;;;;7380155;19;20132;-67
2022/07/19 00:58:46;;;;;;;5.78;4.05;;;;;;;;;;7380338;19;20121;-67
2022/07/19 01:01:12;;;;;;;4.60;3.38;;;;;;;;;;7373875;19;20461;-68
2022/07/19 01:03:39;;;;;;;4.70;3.75;;;;;;;;;;7381200;19;20125;-68
2022/07/19 01:06:05;;;;;;;5.40;3.70;;;;;;;;;;7380926;19;20129;-67
2022/07/19 01:08:30;;;;;;;5.72;3.97;;;;;;;;;;7386464;19;20144;-67
2022/07/19 01:10:56;;;;;;;4.15;3.50;;;;;;;;;;7387346;19;20137;-67
2022/07/19 01:13:21;;;;;;;5.85;3.92;;;;;;;;;;7387386;19;20657;-67
2022/07/19 01:15:46;;;;;;;3.47;3.17;;;;;;;;;;7386606;19;20117;-67
2022/07/19 01:18:11;;;;;;;4.60;3.85;;;;;;;;;;7390317;19;20125;-67
2022/07/19 01:20:37;;;;;;;4.50;4.10;;;;;;;;;;7381218;19;20117;-68
2022/07/19 01:23:02;;;;;;;4.47;3.75;;;;;;;;;;7388478;19;20544;-67
2022/07/19 01:25:30;;;;;;;3.67;3.38;;;;;;;;;;7389067;19;20112;-68
2022/07/19 01:27:56;;;;;;;7.20;3.97;;;;;;;;;;7385003;19;20146;-68
2022/07/19 01:30:24;;;;;;;7.10;4.25;;;;;;;;;;7381955;19;20117;-68
2022/07/19 01:32:50;;;;;;;4.50;4.03;;;;;;;;;;7377551;19;20177;-68
2022/07/19 01:35:16;;;;;;;3.75;3.28;;;;;;;;;;7380357;19;20133;-68
2022/07/19 01:37:41;;;;;;;4.65;3.33;;;;;;;;;;7385742;19;20121;-68
2022/07/19 01:40:09;;;;;;;7.63;4.53;;;;;;;;;;7386603;19;20128;-67
2022/07/19 01:42:34;;;;;;;4.90;3.53;;;;;;;;;;7384691;19;20176;-67
2022/07/19 01:45:00;;;;;;;4.45;4.05;;;;;;;;;;7389140;19;20445;-68
2022/07/19 01:47:25;;;;;;;5.85;3.58;;;;;;;;;;7388067;19;20385;-67
2022/07/19 01:49:51;;;;;;;8.32;5.50;;;;;;;;;;7386858;19;20121;-69
2022/07/19 01:52:16;;;;;;;9.23;8.32;;;;;;;;;;7386641;19;20157;-67
2022/07/19 01:54:42;;;;;;;6.07;5.25;;;;;;;;;;7387424;19;20125;-68
2022/07/19 01:57:07;;;;;;;4.50;4.10;;;;;;;;;;7389815;19;20163;-68
2022/07/19 01:59:35;;;;;;;4.93;3.75;;;;;;;;;;7384050;19;20117;-68
2022/07/19 02:02:01;;;;;;;5.00;3.83;;;;;;;;;;7385000;19;20181;-68
2022/07/19 02:04:26;;;;;;;5.20;3.92;;;;;;;;;;7388170;19;20133;-68
2022/07/19 02:06:51;;;;;;;4.97;4.07;;;;;;;;;;7388551;19;20587;-67
2022/07/19 02:09:16;;;;;;;6.00;3.97;;;;;;;;;;7383631;19;20479;-68
2022/07/19 02:11:42;;;;;;;6.38;4.13;;;;;;;;;;7385021;19;20152;-67
2022/07/19 02:14:08;;;;;;;4.47;3.60;;;;;;;;;;7386717;19;20121;-68
2022/07/19 02:16:37;;;;;;;7.53;4.35;;;;;;;;;;7393064;19;20636;-67
2022/07/19 02:19:04;;;;;;;4.13;3.70;;;;;;;;;;7389143;19;20474;-69
2022/07/19 02:21:30;;;;;;;5.03;3.35;;;;;;;;;;7382200;19;20224;-69
2022/07/19 02:23:55;;;;;;;5.78;3.97;;;;;;;;;;7381310;19;20219;-69
2022/07/19 02:26:20;;;;;;;4.07;3.72;;;;;;;;;;7378651;19;20121;-68
2022/07/19 02:28:46;;;;;;;3.87;3.47;;;;;;;;;;7381432;19;20117;-68
2022/07/19 02:31:11;;;;;;;4.60;3.72;;;;;;;;;;7380370;19;20165;-68
2022/07/19 02:33:36;;;;;;;4.40;4.00;;;;;;;;;;7378177;19;20638;-68
2022/07/19 02:36:03;;;;;;;4.82;3.88;;;;;;;;;;7377279;19;20148;-68
2022/07/19 02:38:29;;;;;;;6.00;4.50;;;;;;;;;;7388093;19;20139;-68
2022/07/19 02:40:54;;;;;;;7.13;3.87;;;;;;;;;;7383897;19;20149;-67
2022/07/19 02:43:19;;;;;;;5.33;4.00;;;;;;;;;;7385778;19;20607;-68
2022/07/19 02:45:45;;;;;;;4.57;3.83;;;;;;;;;;7388143;19;20208;-68
2022/07/19 02:48:10;;;;;;;5.57;3.87;;;;;;;;;;7385813;19;20124;-68
2022/07/19 02:50:35;;;;;;;4.60;3.80;;;;;;;;;;7385037;19;20753;-68
2022/07/19 02:53:01;;;;;;;6.17;3.70;;;;;;;;;;7382227;19;20155;-68
2022/07/19 02:55:27;;;;;;;4.00;3.60;;;;;;;;;;7388680;19;20159;-68
2022/07/19 02:57:52;;;;;;;6.00;3.70;;;;;;;;;;7387576;19;20129;-67
2022/07/19 03:00:17;;;;;;;6.43;3.50;;;;;;;;;;7388090;19;20478;-67
2022/07/19 03:02:43;;;;;;;4.20;3.80;;;;;;;;;;7378520;19;20607;-68
2022/07/19 03:05:08;;;;;;;4.87;4.10;;;;;;;;;;7383758;19;20142;-67
2022/07/19 03:07:34;;;;;;;5.03;3.90;;;;;;;;;;7385629;19;20117;-67
2022/07/19 03:09:59;;;;;;;5.57;3.70;;;;;;;;;;7387141;19;20128;-68
2022/07/19 03:12:24;;;;;;;7.33;4.60;;;;;;;;;;7381217;19;21108;-67
2022/07/19 03:14:50;;;;;;;4.90;3.50;;;;;;;;;;7375719;19;20152;-68
2022/07/19 03:17:15;;;;;;;6.87;4.07;;;;;;;;;;7389234;19;20136;-68
2022/07/19 03:19:40;;;;;;;4.60;4.20;;;;;;;;;;7383251;19;20622;-68
2022/07/19 03:22:06;;;;;;;4.97;4.03;;;;;;;;;;7374962;19;20149;-68
2022/07/19 03:24:31;;;;;;;8.60;4.17;;;;;;;;;;7374918;19;20125;-67
2022/07/19 03:26:56;;;;;;;4.43;4.07;;;;;;;;;;7384048;19;20910;-68
2022/07/19 03:29:22;;;;;;;6.73;4.30;;;;;;;;;;7384513;19;20232;-69
2022/07/19 03:31:47;;;;;;;4.70;4.03;;;;;;;;;;7375180;19;20148;-67
2022/07/19 03:34:12;;;;;;;4.53;4.10;;;;;;;;;;7375605;19;20117;-68
2022/07/19 03:36:38;;;;;;;4.50;3.97;;;;;;;;;;7385961;19;20124;-69
2022/07/19 03:39:03;;;;;;;5.70;4.07;;;;;;;;;;7385702;19;20506;-67
2022/07/19 03:41:29;;;;;;;5.20;4.07;;;;;;;;;;7382280;19;20604;-68
2022/07/19 03:43:54;;;;;;;4.07;3.67;;;;;;;;;;7385373;19;20187;-67
2022/07/19 03:46:20;;;;;;;6.27;4.23;;;;;;;;;;7383047;19;21332;-67
2022/07/19 03:48:46;;;;;;;5.23;4.13;;;;;;;;;;7387125;19;20178;-67
2022/07/19 03:51:12;;;;;;;6.97;4.17;;;;;;;;;;7380464;19;20154;-67
2022/07/19 03:53:37;;;;;;;4.20;3.80;;;;;;;;;;7382698;19;20144;-67
2022/07/19 03:56:03;;;;;;;5.13;4.10;;;;;;;;;;7380803;19;20117;-68
2022/07/19 03:58:28;;;;;;;4.90;4.30;;;;;;;;;;7382374;19;20689;-67
2022/07/19 04:00:54;;;;;;;4.60;4.20;;;;;;;;;;7386416;19;20149;-67
2022/07/19 04:03:19;;;;;;;5.63;4.20;;;;;;;;;;7378299;19;20513;-68
2022/07/19 04:05:44;;;;;;;5.17;4.30;;;;;;;;;;7384639;19;20120;-68
2022/07/19 04:08:10;;;;;;;4.77;4.30;;;;;;;;;;7383677;19;20129;-67
2022/07/19 04:10:35;;;;;;;7.97;4.10;;;;;;;;;;7385541;19;20180;-68
2022/07/19 04:13:00;;;;;;;6.10;4.40;;;;;;;;;;7382375;19;20117;-69
2022/07/19 04:15:26;;;;;;;8.63;4.57;;;;;;;;;;7378856;19;20116;-68
2022/07/19 04:17:51;;;;;;;6.23;4.00;;;;;;;;;;7384596;19;20124;-69
2022/07/19 04:20:16;;;;;;;5.77;4.00;;;;;;;;;;7391059;19;20117;-68
2022/07/19 04:22:42;;;;;;;5.80;4.73;;;;;;;;;;7388306;19;20693;-68
2022/07/19 04:25:08;;;;;;;4.83;4.00;;;;;;;;;;7389661;19;20117;-68
2022/07/19 04:27:33;;;;;;;4.60;4.07;;;;;;;;;;7390977;19;20474;-68
2022/07/19 04:29:58;;;;;;;5.23;4.73;;;;;;;;;;7391700;19;20135;-68
2022/07/19 04:32:24;;;;;;;6.40;4.13;;;;;;;;;;7389991;19;20234;-69
2022/07/19 04:34:49;;;;;;;6.17;4.30;;;;;;;;;;7385559;19;20571;-68
2022/07/19 04:37:15;;;;;;;5.83;4.10;;;;;;;;;;7389007;19;20117;-68
2022/07/19 04:39:40;;;;;;;5.10;3.97;;;;;;;;;;7385138;19;20480;-74
2022/07/19 04:42:05;;;;;;;4.80;3.90;;;;;;;;;;7386017;19;20178;-68
2022/07/19 04:44:31;;;;;;;4.90;3.93;;;;;;;;;;7389317;19;20117;-68
2022/07/19 04:46:56;;;;;;;5.67;3.87;;;;;;;;;;7387433;19;20133;-68
2022/07/19 04:49:21;;;;;;;6.03;3.90;;;;;;;;;;7389255;19;20116;-68
2022/07/19 04:51:47;;;;;;;5.37;3.80;;;;;;;;;;7386556;19;20513;-68
2022/07/19 04:54:12;;;;;;;5.07;4.00;;;;;;;;;;7388864;19;20651;-68
2022/07/19 04:56:37;;;;;;;4.00;3.60;;;;;;;;;;7389492;19;20120;-68
2022/07/19 04:59:03;;;;;;;7.50;4.27;;;;;;;;;;7384978;19;20136;-69
2022/07/19 05:01:28;;;;;;;5.60;4.50;;;;;;;;;;7388436;19;20145;-68
2022/07/19 05:03:53;;;;;;;4.57;4.17;;;;;;;;;;7389098;19;20465;-68
2022/07/19 05:06:18;;;;;;;4.87;4.37;;;;;;;;;;7384984;19;20154;-68
2022/07/19 05:08:44;;;;;;;6.53;4.53;;;;;;;;;;7389673;19;20184;-68
2022/07/19 05:11:09;;;;;;;7.73;4.40;;;;;;;;;;7380492;19;20551;-69
2022/07/19 05:13:34;;;;;;;5.43;4.10;;;;;;;;;;7387962;19;20133;-68
2022/07/19 05:16:00;;;;;;;5.67;4.10;;;;;;;;;;7389928;19;20141;-68
2022/07/19 05:18:25;;;;;;;10.97;4.50;;;;;;;;;;7387183;19;20117;-68
2022/07/19 05:20:50;;;;;;;6.40;4.73;;;;;;;;;;7385093;19;20168;-69
2022/07/19 05:23:16;;;;;;;6.03;4.78;;;;;;;;;;7389139;19;20124;-69
2022/07/19 05:25:41;;;;;;;6.13;4.60;;;;;;;;;;7387822;19;20128;-68
2022/07/19 05:28:06;;;;;;;6.03;4.00;;;;;;;;;;7389593;19;20145;-67
2022/07/19 05:30:32;;;;;;;6.33;3.87;;;;;;;;;;7388540;19;20121;-67
2022/07/19 05:32:57;;;;;;;4.47;3.80;;;;;;;;;;7388365;19;20223;-67
2022/07/19 05:35:22;;;;;;;5.85;3.70;;;;;;;;;;7387332;19;20196;-68
2022/07/19 05:37:48;;;;;;;6.40;3.65;;;;;;;;;;7388307;19;20121;-68
2022/07/19 05:40:13;;;;;;;3.30;3.00;;;;;;;;;;7389159;19;20292;-67
2022/07/19 05:42:38;;;;;;;6.97;3.65;;;;;;;;;;7385758;19;20149;-68
2022/07/19 05:45:04;;;;;;;3.65;3.20;;;;;;;;;;7387636;19;20137;-68
2022/07/19 05:47:29;;;;;;;4.03;3.63;;;;;;;;;;7392966;19;20177;-68
2022/07/19 05:49:55;;;;;;;6.43;3.90;;;;;;;;;;7394699;19;20155;-67
2022/07/19 05:52:21;;;;;;;3.70;3.30;;;;;;;;;;7390594;19;20172;-67
2022/07/19 05:54:46;;;;;;;4.68;3.20;;;;;;;;;;7392049;19;20125;-68
2022/07/19 05:57:11;;;;;;;7.35;3.88;;;;;;;;;;7395330;19;20139;-68
2022/07/19 05:59:37;;;;;;;4.43;3.60;;;;;;;;;;7394859;19;20494;-67
2022/07/19 06:02:03;;;;;;;6.72;3.83;;;;;;;;;;7396129;19;20155;-68
2022/07/19 06:04:28;;;;;;;5.38;3.63;;;;;;;;;;7396702;19;20137;-68
2022/07/19 06:06:53;;;;;;;5.18;3.42;;;;;;;;;;7396654;19;20109;-68
2022/07/19 06:09:19;;;;;;;4.30;3.35;;;;;;;;;;7398131;19;20113;-67
2022/07/19 06:11:44;;;;;;;3.33;3.03;;;;;;;;;;7391269;19;20172;-68
2022/07/19 06:14:09;;;;;;;7.90;3.60;;;;;;;;;;7391950;19;20128;-69
2022/07/19 17:42:00;;;;;;;3.63;3.28;;;;;;;;;;7388773;19;20457;-70
2022/07/19 17:44:25;;;;;;;6.85;3.25;;;;;;;;;;7389332;19;20195;-70
2022/07/19 17:46:50;;;;;;;4.32;3.22;;;;;;;;;;7387357;19;20124;-70
2022/07/19 17:49:16;;;;;;;10.23;3.50;;;;;;;;;;7389500;19;20509;-70
2022/07/19 17:51:41;;;;;;;7.88;3.40;;;;;;;;;;7387663;19;20654;-70
2022/07/19 17:54:06;;;;;;;3.58;3.28;;;;;;;;;;7388372;19;20139;-71
2022/07/19 17:56:32;;;;;;;3.45;2.83;;;;;;;;;;7389067;19;20113;-70
2022/07/19 17:58:57;;;;;;;3.20;2.90;;;;;;;;;;7387197;19;20599;-70
2022/07/19 18:01:22;;;;;;;5.53;3.28;;;;;;;;;;7384606;19;20148;-70
2022/07/19 18:03:48;;;;;;;4.88;3.13;;;;;;;;;;7388780;19;20124;-70
2022/07/19 18:06:13;;;;;;;3.65;3.35;;;;;;;;;;7386211;19;20125;-70
2022/07/19 18:08:39;;;;;;;3.30;2.97;;;;;;;;;;7387702;19;20182;-70
2022/07/19 18:11:05;;;;;;;4.22;3.10;;;;;;;;;;7379885;19;20148;-70
2022/07/19 18:13:30;;;;;;;3.72;3.35;;;;;;;;;;7388796;19;20128;-71
2022/07/19 18:15:55;;;;;;;2.95;2.70;;;;;;;;;;7387029;19;20196;-71
2022/07/19 18:18:21;;;;;;;3.50;3.15;;;;;;;;;;7388664;19;20140;-70
2022/07/19 18:20:46;;;;;;;3.15;2.88;;;;;;;;;;7384451;19;20215;-70
2022/07/19 18:23:12;;;;;;;3.03;2.83;;;;;;;;;;7372538;19;20167;-71
2022/07/19 18:25:38;;;;;;;4.93;3.40;;;;;;;;;;7370539;19;20136;-71
2022/07/19 18:28:04;;;;;;;3.22;2.90;;;;;;;;;;7364905;19;20117;-70
2022/07/19 18:30:29;;;;;;;6.65;3.70;;;;;;;;;;7374494;19;20151;-71
2022/07/19 18:32:54;;;;;;;5.20;3.22;;;;;;;;;;7372570;19;20138;-71
2022/07/19 18:35:19;;;;;;;3.10;2.90;;;;;;;;;;7386606;19;20149;-70
2022/07/19 18:37:45;;;;;;;3.55;2.90;;;;;;;;;;7378771;19;20125;-70
2022/07/19 18:40:10;;;;;;;6.82;3.38;;;;;;;;;;7370636;19;20133;-71
2022/07/19 18:42:36;;;;;;;4.28;2.83;;;;;;;;;;7366308;19;20168;-71
2022/07/19 18:45:03;;;;;;;3.00;2.80;;;;;;;;;;7367120;19;20136;-70
2022/07/19 18:47:28;;;;;;;3.92;2.80;;;;;;;;;;7364015;19;20220;-71
2022/07/19 18:49:55;;;;;;;3.03;2.65;;;;;;;;;;7370054;19;20133;-70
2022/07/19 18:52:21;;;;;;;4.05;3.00;;;;;;;;;;7367688;19;20786;-70
2022/07/19 18:54:46;;;;;;;2.92;2.72;;;;;;;;;;7381504;19;20598;-70
2022/07/19 18:57:11;;;;;;;3.70;3.05;;;;;;;;;;7377021;19;20471;-71
2022/07/19 18:59:38;;;;;;;3.80;2.80;;;;;;;;;;7384845;19;20151;-71
2022/07/19 19:02:03;;;;;;;3.47;3.17;;;;;;;;;;7382200;19;20723;-70
2022/07/19 19:04:28;;;;;;;4.43;3.15;;;;;;;;;;7375924;19;20129;-70
2022/07/19 19:06:54;;;;;;;4.22;2.65;;;;;;;;;;7370849;19;20137;-71
2022/07/19 19:09:19;;;;;;;3.85;3.30;;;;;;;;;;7361076;19;20160;-71
2022/07/19 19:11:44;;;;;;;4.13;3.03;;;;;;;;;;7369957;19;20181;-70
2022/07/19 19:14:10;;;;;;;2.85;2.65;;;;;;;;;;7379283;19;20468;-71
2022/07/19 19:16:35;;;;;;;3.80;2.80;;;;;;;;;;7373977;19;20124;-71
2022/07/19 19:19:00;;;;;;;3.38;2.92;;;;;;;;;;7374800;19;20144;-71
2022/07/19 19:21:26;;;;;;;3.80;3.00;;;;;;;;;;7366813;19;21347;-71
2022/07/19 19:23:51;;;;;;;3.65;2.55;;;;;;;;;;7366101;19;20940;-71
2022/07/19 19:26:18;;;;;;;4.18;3.42;;;;;;;;;;7377726;19;20125;-71
2022/07/19 19:28:44;;;;;;;5.38;2.83;;;;;;;;;;7368494;19;20136;-70
2022/07/19 19:31:09;;;;;;;3.20;2.70;;;;;;;;;;7366939;19;20297;-71
2022/07/19 19:33:34;;;;;;;4.97;3.00;;;;;;;;;;7376512;19;20135;-71
2022/07/19 19:36:00;;;;;;;6.18;3.30;;;;;;;;;;7372792;19;20477;-70
2022/07/19 19:38:26;;;;;;;3.47;2.95;;;;;;;;;;7387136;19;20125;-71
2022/07/19 19:40:51;;;;;;;5.38;3.17;;;;;;;;;;7382583;19;20503;-71
2022/07/19 19:43:17;;;;;;;5.03;3.28;;;;;;;;;;7389956;19;20206;-71
2022/07/19 19:45:43;;;;;;;4.13;2.75;;;;;;;;;;7385906;19;20125;-70
2022/07/19 19:48:09;;;;;;;3.85;3.28;;;;;;;;;;7383032;19;20117;-70
2022/07/19 19:50:34;;;;;;;6.75;3.58;;;;;;;;;;7388098;19;20143;-70
2022/07/19 19:53:00;;;;;;;5.75;3.40;;;;;;;;;;7387939;19;20710;-71
2022/07/19 19:55:27;;;;;;;6.40;3.30;;;;;;;;;;7382390;19;20117;-71
2022/07/19 19:57:52;;;;;;;5.05;3.42;;;;;;;;;;7379581;19;20142;-70
2022/07/19 20:00:17;;;;;;;5.35;3.95;;;;;;;;;;7368843;19;21112;-71
2022/07/19 20:02:43;;;;;;;4.95;3.70;;;;;;;;;;7388040;19;20145;-70
2022/07/19 20:05:10;;;;;;;3.80;3.35;;;;;;;;;;7382519;19;20146;-70
2022/07/19 20:07:35;;;;;;;6.63;3.63;;;;;;;;;;7386368;19;20651;-70
2022/07/19 20:10:01;;;;;;;6.20;3.72;;;;;;;;;;7392260;19;20129;-70
2022/07/19 20:12:26;;;;;;;5.03;3.63;;;;;;;;;;7386451;19;20182;-71
2022/07/19 20:14:52;;;;;;;3.88;3.13;;;;;;;;;;7388318;19;20121;-70
2022/07/19 20:17:18;;;;;;;5.05;3.47;;;;;;;;;;7376421;19;20141;-71
2022/07/19 20:19:43;;;;;;;5.43;3.40;;;;;;;;;;7377263;19;20137;-71
2022/07/19 20:22:09;;;;;;;5.38;3.95;;;;;;;;;;7381909;19;20673;-70
2022/07/19 20:24:34;;;;;;;5.72;3.75;;;;;;;;;;7389416;19;20482;-71
2022/07/19 20:27:00;;;;;;;4.60;3.08;;;;;;;;;;7384944;19;20175;-70
2022/07/19 20:29:25;;;;;;;6.85;3.70;;;;;;;;;;7389405;19;20121;-70
2022/07/19 20:31:51;;;;;;;4.72;3.60;;;;;;;;;;7387818;19;20213;-70
2022/07/19 20:34:16;;;;;;;6.10;4.15;;;;;;;;;;7380064;19;20121;-70
2022/07/19 20:36:41;;;;;;;7.97;4.40;;;;;;;;;;7390893;19;20121;-70
2022/07/19 20:39:07;;;;;;;4.78;4.10;;;;;;;;;;7392780;19;20136;-70
2022/07/19 20:41:32;;;;;;;5.55;4.13;;;;;;;;;;7383646;19;20164;-71
2022/07/19 20:43:57;;;;;;;5.32;3.70;;;;;;;;;;7387192;19;20129;-70
2022/07/19 20:46:23;;;;;;;5.45;3.67;;;;;;;;;;7389950;19;20152;-71
2022/07/19 20:48:48;;;;;;;6.03;3.60;;;;;;;;;;7391476;19;20121;-70
2022/07/19 20:51:14;;;;;;;5.18;3.63;;;;;;;;;;7383432;19;20149;-70
2022/07/19 20:53:39;;;;;;;6.75;4.18;;;;;;;;;;7376819;19;20476;-70
2022/07/19 20:56:04;;;;;;;4.70;3.78;;;;;;;;;;7386637;19;20349;-70
2022/07/19 20:58:30;;;;;;;6.13;4.60;;;;;;;;;;7382463;19;20133;-70
2022/07/19 21:00:55;;;;;;;7.80;5.15;;;;;;;;;;7383258;19;20153;-70
2022/07/19 21:03:20;;;;;;;6.55;5.10;;;;;;;;;;7385704;19;20110;-70
2022/07/19 21:05:46;;;;;;;6.07;5.32;;;;;;;;;;7384886;19;20146;-71
2022/07/19 21:08:11;;;;;;;6.82;5.22;;;;;;;;;;7383282;19;20113;-70
2022/07/19 21:10:37;;;;;;;6.50;5.10;;;;;;;;;;7383835;19;20204;-70
2022/07/19 21:13:03;;;;;;;6.40;4.95;;;;;;;;;;7379361;19;20131;-70
2022/07/19 21:15:28;;;;;;;6.95;4.63;;;;;;;;;;7384518;19;20196;-71
2022/07/19 21:17:53;;;;;;;6.53;5.10;;;;;;;;;;7390089;19;20138;-71
2022/07/19 21:20:19;;;;;;;6.53;5.55;;;;;;;;;;7388385;19;20440;-71
2022/07/19 21:22:48;;;;;;;6.10;4.97;;;;;;;;;;7388075;19;20152;-70
2022/07/19 21:25:14;;;;;;;7.13;5.07;;;;;;;;;;7388209;19;20121;-70
2022/07/19 21:27:39;;;;;;;6.55;4.65;;;;;;;;;;7383646;19;20152;-70
2022/07/19 21:30:05;;;;;;;6.43;4.43;;;;;;;;;;7381823;19;20132;-70
2022/07/19 21:32:31;;;;;;;5.57;4.30;;;;;;;;;;7376089;19;20168;-70
2022/07/19 21:34:56;;;;;;;5.80;5.03;;;;;;;;;;7380000;19;20129;-70
2022/07/19 21:37:21;;;;;;;5.38;4.88;;;;;;;;;;7376237;19;20118;-70
2022/07/19 21:39:47;;;;;;;7.95;4.95;;;;;;;;;;7380644;19;20161;-71
2022/07/19 21:42:12;;;;;;;8.20;5.50;;;;;;;;;;7371362;19;20151;-71
2022/07/19 21:44:37;;;;;;;6.30;5.40;;;;;;;;;;7383452;19;20121;-70
2022/07/19 21:47:08;;;;;;;5.30;4.80;;;;;;;;;;7387856;19;20125;-70
2022/07/19 21:49:33;;;;;;;6.75;4.78;;;;;;;;;;7389782;19;20129;-70
2022/07/19 21:51:59;;;;;;;7.63;5.10;;;;;;;;;;7386001;19;20156;-70
2022/07/19 21:54:24;;;;;;;5.55;4.93;;;;;;;;;;7386899;19;20113;-70
2022/07/19 21:56:49;;;;;;;12.75;4.72;;;;;;;;;;7373156;19;20125;-71
2022/07/19 21:59:15;;;;;;;8.30;4.72;;;;;;;;;;7378635;19;20158;-70
2022/07/19 22:01:40;;;;;;;5.72;4.80;;;;;;;;;;7381913;19;20148;-70
2022/07/19 22:04:05;;;;;;;5.57;4.47;;;;;;;;;;7382546;19;20134;-70
2022/07/19 22:06:31;;;;;;;6.30;4.53;;;;;;;;;;7378365;19;20690;-70
2022/07/19 22:08:57;;;;;;;9.48;5.03;;;;;;;;;;7376899;19;20162;-71
2022/07/19 22:11:22;;;;;;;11.73;4.72;;;;;;;;;;7377244;19;20151;-70
2022/07/19 22:13:48;;;;;;;9.25;4.50;;;;;;;;;;7384601;19;20128;-70
2022/07/19 22:16:14;;;;;;;6.35;5.05;;;;;;;;;;7378366;19;20121;-70
2022/07/19 22:18:40;;;;;;;6.03;4.40;;;;;;;;;;7380639;19;20129;-70
2022/07/19 22:21:05;;;;;;;5.55;4.60;;;;;;;;;;7381097;19;20152;-70
2022/07/19 22:23:30;;;;;;;5.35;4.63;;;;;;;;;;7388881;19;20132;-70
2022/07/19 22:25:56;;;;;;;6.28;4.68;;;;;;;;;;7381335;19;20125;-70
2022/07/19 22:28:21;;;;;;;7.00;4.60;;;;;;;;;;7378388;19;20184;-70
2022/07/19 22:30:46;;;;;;;7.57;5.32;;;;;;;;;;7384745;19;20144;-70
2022/07/19 22:33:12;;;;;;;6.13;5.03;;;;;;;;;;7381218;19;20643;-70
2022/07/19 22:35:37;;;;;;;6.13;5.05;;;;;;;;;;7380563;19;20134;-70
2022/07/19 22:38:03;;;;;;;7.28;5.63;;;;;;;;;;7378977;19;20563;-70
2022/07/19 22:40:28;;;;;;;8.25;5.25;;;;;;;;;;7379808;19;20117;-70
2022/07/19 22:42:55;;;;;;;5.70;4.68;;;;;;;;;;7365066;19;20149;-70
2022/07/19 22:45:20;;;;;;;7.97;4.80;;;;;;;;;;7369562;19;20125;-70
2022/07/19 22:47:45;;;;;;;5.15;4.55;;;;;;;;;;7380830;19;20605;-70
2022/07/19 22:50:11;;;;;;;5.05;4.55;;;;;;;;;;7371913;19;20583;-70
2022/07/19 22:52:36;;;;;;;6.53;4.78;;;;;;;;;;7378680;19;20665;-70
2022/07/19 22:55:02;;;;;;;5.82;4.85;;;;;;;;;;7382614;19;20121;-70
2022/07/19 22:57:28;;;;;;;6.18;4.55;;;;;;;;;;7378979;19;20149;-70
2022/07/19 22:59:53;;;;;;;4.95;4.47;;;;;;;;;;7387776;19;20121;-70
2022/07/19 23:02:18;;;;;;;6.25;4.32;;;;;;;;;;7391700;19;20151;-70
2022/07/19 23:04:44;;;;;;;8.43;5.30;;;;;;;;;;7384525;19;20131;-70
2022/07/19 23:07:09;;;;;;;5.82;4.80;;;;;;;;;;7383844;19;20202;-70
2022/07/19 23:09:34;;;;;;;4.97;4.43;;;;;;;;;;7386556;19;20117;-70
2022/07/19 23:12:00;;;;;;;6.40;4.63;;;;;;;;;;7384458;19;20191;-70
2022/07/19 23:14:26;;;;;;;5.28;4.28;;;;;;;;;;7384605;19;20125;-70
2022/07/19 23:16:51;;;;;;;5.80;4.50;;;;;;;;;;7386196;19;20125;-70
2022/07/19 23:19:17;;;;;;;8.57;4.75;;;;;;;;;;7381512;19;20337;-70
2022/07/19 23:21:42;;;;;;;6.72;4.95;;;;;;;;;;7386855;19;20160;-70
2022/07/19 23:24:07;;;;;;;5.60;4.90;;;;;;;;;;7384441;19;20132;-70
2022/07/19 23:26:33;;;;;;;7.32;5.28;;;;;;;;;;7386947;19;20129;-71
2022/07/19 23:28:58;;;;;;;8.95;4.75;;;;;;;;;;7383466;19;20129;-71
2022/07/19 23:31:23;;;;;;;7.45;4.97;;;;;;;;;;7380099;19;20221;-71
2022/07/19 23:33:48;;;;;;;6.75;5.38;;;;;;;;;;7385682;19;20125;-70
2022/07/19 23:36:14;;;;;;;9.15;5.20;;;;;;;;;;7384187;19;20692;-70
2022/07/19 23:38:39;;;;;;;6.15;5.22;;;;;;;;;;7383662;19;20125;-70
2022/07/19 23:41:05;;;;;;;5.95;4.85;;;;;;;;;;7374954;19;20176;-70
2022/07/19 23:43:32;;;;;;;6.47;5.10;;;;;;;;;;7389406;19;20140;-70
2022/07/19 23:46:01;;;;;;;8.05;5.32;;;;;;;;;;7383198;19;20125;-70
2022/07/19 23:48:27;;;;;;;6.25;5.13;;;;;;;;;;7385254;19;20124;-70
2022/07/19 23:50:52;;;;;;;5.35;4.85;;;;;;;;;;7384703;19;20137;-70
2022/07/19 23:53:18;;;;;;;6.65;4.90;;;;;;;;;;7387311;19;20121;-70
2022/07/19 23:55:44;;;;;;;7.53;5.07;;;;;;;;;;7388772;19;20152;-70
2022/07/19 23:58:09;;;;;;;7.43;5.00;;;;;;;;;;7393002;19;20537;-70
